sensor_id;sensor_type;location;lat;lon;timestamp;pressure;altitude;pressure_sealevel;temperature;humidity
12626;BME280;6378;42.684;23.372;2022-12-20T00:00:53;96929.31;;;-0.17;100.00
12626;BME280;6378;42.684;23.372;2022-12-20T00:03:18;96933.56;;;-0.16;100.00
12626;BME280;6378;42.684;23.372;2022-12-20T00:05:45;96939.53;;;-0.09;100.00
12626;BME280;6378;42.684;23.372;2022-12-20T00:08:10;96935.63;;;-0.18;100.00
12626;BME280;6378;42.684;23.372;2022-12-20T00:10:41;96927.34;;;-0.22;100.00
12626;BME280;6378;42.684;23.372;2022-12-20T00:13:08;96937.56;;;-0.14;100.00
12626;BME280;6378;42.684;23.372;2022-12-20T00:15:33;96915.63;;;-0.26;100.00
12626;BME280;6378;42.684;23.372;2022-12-20T00:18:00;96942.28;;;-0.04;100.00
12626;BME280;6378;42.684;23.372;2022-12-20T00:20:27;96942.41;;;0.01;100.00
12626;BME280;6378;42.684;23.372;2022-12-20T00:22:53;96949.31;;;0.02;100.00
12626;BME280;6378;42.684;23.372;2022-12-20T00:25:18;96958.06;;;0.03;100.00
12626;BME280;6378;42.684;23.372;2022-12-20T00:27:45;96944.00;;;0.02;100.00
12626;BME280;6378;42.684;23.372;2022-12-20T00:30:11;96945.63;;;0.03;100.00
12626;BME280;6378;42.684;23.372;2022-12-20T00:32:37;96945.63;;;-0.09;100.00
12626;BME280;6378;42.684;23.372;2022-12-20T00:35:03;96944.59;;;0.04;100.00
12626;BME280;6378;42.684;23.372;2022-12-20T00:37:29;96935.41;;;-0.05;100.00
12626;BME280;6378;42.684;23.372;2022-12-20T00:39:55;96931.91;;;0.06;100.00
12626;BME280;6378;42.684;23.372;2022-12-20T00:42:21;96935.84;;;0.04;100.00
12626;BME280;6378;42.684;23.372;2022-12-20T00:44:46;96933.53;;;0.07;100.00
12626;BME280;6378;42.684;23.372;2022-12-20T00:47:12;96929.28;;;0.06;100.00
12626;BME280;6378;42.684;23.372;2022-12-20T00:49:37;96929.84;;;0.08;100.00
12626;BME280;6378;42.684;23.372;2022-12-20T00:52:02;96931.91;;;0.06;100.00
12626;BME280;6378;42.684;23.372;2022-12-20T00:54:28;96937.91;;;0.02;100.00
12626;BME280;6378;42.684;23.372;2022-12-20T00:56:53;96941.47;;;0.07;100.00
12626;BME280;6378;42.684;23.372;2022-12-20T00:59:19;96936.66;;;0.04;100.00
12626;BME280;6378;42.684;23.372;2022-12-20T01:01:45;96941.97;;;0.04;100.00
12626;BME280;6378;42.684;23.372;2022-12-20T01:04:11;96938.84;;;0.07;100.00
12626;BME280;6378;42.684;23.372;2022-12-20T01:06:37;96914.22;;;-0.05;100.00
12626;BME280;6378;42.684;23.372;2022-12-20T01:09:03;96938.84;;;0.07;100.00
12626;BME280;6378;42.684;23.372;2022-12-20T01:11:33;96938.50;;;0.04;100.00
12626;BME280;6378;42.684;23.372;2022-12-20T01:14:06;96913.31;;;-0.11;100.00
12626;BME280;6378;42.684;23.372;2022-12-20T01:16:35;96936.28;;;0.00;100.00
12626;BME280;6378;42.684;23.372;2022-12-20T01:19:03;96940.00;;;-0.01;100.00
12626;BME280;6378;42.684;23.372;2022-12-20T01:21:29;96925.25;;;0.04;100.00
12626;BME280;6378;42.684;23.372;2022-12-20T01:23:55;96906.75;;;-0.08;100.00
12626;BME280;6378;42.684;23.372;2022-12-20T01:26:23;96908.13;;;-0.06;100.00
12626;BME280;6378;42.684;23.372;2022-12-20T01:28:52;96916.19;;;-0.12;100.00
12626;BME280;6378;42.684;23.372;2022-12-20T01:31:19;96908.47;;;-0.14;100.00
12626;BME280;6378;42.684;23.372;2022-12-20T01:33:46;96912.63;;;-0.18;100.00
12626;BME280;6378;42.684;23.372;2022-12-20T01:36:41;96907.00;;;-0.21;100.00
12626;BME280;6378;42.684;23.372;2022-12-20T01:39:10;96909.84;;;-0.23;100.00
12626;BME280;6378;42.684;23.372;2022-12-20T01:41:37;96892.34;;;-0.24;100.00
12626;BME280;6378;42.684;23.372;2022-12-20T01:46:53;96902.03;;;-0.18;100.00
12626;BME280;6378;42.684;23.372;2022-12-20T01:49:21;96896.19;;;-0.20;100.00
12626;BME280;6378;42.684;23.372;2022-12-20T01:54:25;96896.84;;;-0.24;100.00
12626;BME280;6378;42.684;23.372;2022-12-20T01:56:57;96884.91;;;-0.27;100.00
12626;BME280;6378;42.684;23.372;2022-12-20T01:59:25;96888.34;;;-0.26;100.00
12626;BME280;6378;42.684;23.372;2022-12-20T02:01:51;96879.03;;;-0.29;100.00
12626;BME280;6378;42.684;23.372;2022-12-20T02:04:17;96874.69;;;-0.35;100.00
12626;BME280;6378;42.684;23.372;2022-12-20T02:06:42;96875.47;;;-0.34;100.00
12626;BME280;6378;42.684;23.372;2022-12-20T02:09:08;96865.13;;;-0.48;100.00
12626;BME280;6378;42.684;23.372;2022-12-20T02:11:40;96877.53;;;-0.36;100.00
12626;BME280;6378;42.684;23.372;2022-12-20T02:22:57;96886.75;;;-0.27;100.00
12626;BME280;6378;42.684;23.372;2022-12-20T02:31:18;96873.50;;;-0.39;100.00
12626;BME280;6378;42.684;23.372;2022-12-20T02:33:46;96878.13;;;-0.46;100.00
12626;BME280;6378;42.684;23.372;2022-12-20T02:36:17;96879.84;;;-0.40;100.00
12626;BME280;6378;42.684;23.372;2022-12-20T02:38:42;96872.72;;;-0.39;100.00
12626;BME280;6378;42.684;23.372;2022-12-20T02:41:32;96875.94;;;-0.37;100.00
12626;BME280;6378;42.684;23.372;2022-12-20T02:44:14;96868.56;;;-0.35;100.00
12626;BME280;6378;42.684;23.372;2022-12-20T02:47:01;96868.31;;;-0.34;100.00
12626;BME280;6378;42.684;23.372;2022-12-20T02:49:33;96867.66;;;-0.29;100.00
12626;BME280;6378;42.684;23.372;2022-12-20T02:52:03;96868.22;;;-0.27;100.00
12626;BME280;6378;42.684;23.372;2022-12-20T02:54:29;96868.53;;;-0.24;100.00
12626;BME280;6378;42.684;23.372;2022-12-20T02:57:00;96868.00;;;-0.26;100.00
12626;BME280;6378;42.684;23.372;2022-12-20T02:59:34;96864.31;;;-0.36;100.00
12626;BME280;6378;42.684;23.372;2022-12-20T03:02:02;96864.09;;;-0.35;100.00
12626;BME280;6378;42.684;23.372;2022-12-20T03:04:30;96860.75;;;-0.30;100.00
12626;BME280;6378;42.684;23.372;2022-12-20T03:09:34;96858.91;;;-0.41;100.00
12626;BME280;6378;42.684;23.372;2022-12-20T03:12:00;96856.38;;;-0.48;100.00
12626;BME280;6378;42.684;23.372;2022-12-20T03:14:26;96857.66;;;-0.51;100.00
12626;BME280;6378;42.684;23.372;2022-12-20T03:16:52;96850.06;;;-0.59;100.00
12626;BME280;6378;42.684;23.372;2022-12-20T03:19:18;96853.63;;;-0.65;100.00
12626;BME280;6378;42.684;23.372;2022-12-20T03:21:44;96837.97;;;-0.78;100.00
12626;BME280;6378;42.684;23.372;2022-12-20T03:24:09;96817.75;;;-0.96;100.00
12626;BME280;6378;42.684;23.372;2022-12-20T03:26:36;96850.06;;;-0.70;100.00
12626;BME280;6378;42.684;23.372;2022-12-20T03:29:02;96848.81;;;-0.79;100.00
12626;BME280;6378;42.684;23.372;2022-12-20T03:31:27;96848.09;;;-0.87;100.00
12626;BME280;6378;42.684;23.372;2022-12-20T03:33:53;96849.59;;;-0.79;100.00
12626;BME280;6378;42.684;23.372;2022-12-20T03:36:18;96815.91;;;-0.95;100.00
12626;BME280;6378;42.684;23.372;2022-12-20T03:38:48;96843.97;;;-0.94;100.00
12626;BME280;6378;42.684;23.372;2022-12-20T03:41:14;96840.94;;;-0.98;100.00
12626;BME280;6378;42.684;23.372;2022-12-20T03:43:39;96849.13;;;-0.88;100.00
12626;BME280;6378;42.684;23.372;2022-12-20T03:46:04;96843.16;;;-0.95;100.00
12626;BME280;6378;42.684;23.372;2022-12-20T03:48:30;96841.19;;;-0.99;100.00
12626;BME280;6378;42.684;23.372;2022-12-20T03:50:55;96845.53;;;-1.05;100.00
12626;BME280;6378;42.684;23.372;2022-12-20T03:53:21;96846.78;;;-1.07;100.00
12626;BME280;6378;42.684;23.372;2022-12-20T03:55:46;96849.78;;;-1.15;100.00
12626;BME280;6378;42.684;23.372;2022-12-20T03:58:11;96840.22;;;-1.16;100.00
12626;BME280;6378;42.684;23.372;2022-12-20T04:00:37;96834.13;;;-1.28;100.00
12626;BME280;6378;42.684;23.372;2022-12-20T04:03:02;96836.19;;;-1.31;100.00
12626;BME280;6378;42.684;23.372;2022-12-20T04:05:28;96838.94;;;-1.25;100.00
12626;BME280;6378;42.684;23.372;2022-12-20T04:07:53;96839.16;;;-1.27;100.00
12626;BME280;6378;42.684;23.372;2022-12-20T04:10:18;96831.56;;;-1.35;100.00
12626;BME280;6378;42.684;23.372;2022-12-20T04:12:44;96835.50;;;-1.26;100.00
12626;BME280;6378;42.684;23.372;2022-12-20T04:15:09;96815.38;;;-1.39;100.00
12626;BME280;6378;42.684;23.372;2022-12-20T04:17:35;96832.50;;;-1.29;100.00
12626;BME280;6378;42.684;23.372;2022-12-20T04:20:00;96827.91;;;-1.34;100.00
12626;BME280;6378;42.684;23.372;2022-12-20T04:22:46;96821.91;;;-1.41;100.00
12626;BME280;6378;42.684;23.372;2022-12-20T04:25:13;96823.31;;;-1.39;100.00
12626;BME280;6378;42.684;23.372;2022-12-20T04:27:38;96813.28;;;-1.48;100.00
12626;BME280;6378;42.684;23.372;2022-12-20T04:30:05;96823.09;;;-1.37;100.00
12626;BME280;6378;42.684;23.372;2022-12-20T04:32:30;96807.78;;;-1.47;100.00
12626;BME280;6378;42.684;23.372;2022-12-20T04:34:56;96818.59;;;-1.37;100.00
12626;BME280;6378;42.684;23.372;2022-12-20T04:37:21;96815.81;;;-1.42;100.00
12626;BME280;6378;42.684;23.372;2022-12-20T04:39:46;96813.63;;;-1.45;100.00
12626;BME280;6378;42.684;23.372;2022-12-20T04:42:12;96824.34;;;-1.40;100.00
12626;BME280;6378;42.684;23.372;2022-12-20T04:44:37;96823.41;;;-1.45;100.00
12626;BME280;6378;42.684;23.372;2022-12-20T04:47:03;96821.00;;;-1.47;100.00
12626;BME280;6378;42.684;23.372;2022-12-20T04:49:28;96818.78;;;-1.50;100.00
12626;BME280;6378;42.684;23.372;2022-12-20T04:51:53;96823.50;;;-1.52;100.00
12626;BME280;6378;42.684;23.372;2022-12-20T04:54:19;96798.13;;;-1.53;100.00
12626;BME280;6378;42.684;23.372;2022-12-20T04:56:44;96818.78;;;-1.50;100.00
12626;BME280;6378;42.684;23.372;2022-12-20T04:59:10;96789.00;;;-1.68;100.00
12626;BME280;6378;42.684;23.372;2022-12-20T05:01:36;96816.88;;;-1.43;100.00
12626;BME280;6378;42.684;23.372;2022-12-20T05:04:02;96805.13;;;-1.58;100.00
12626;BME280;6378;42.684;23.372;2022-12-20T05:06:27;96820.50;;;-1.55;100.00
12626;BME280;6378;42.684;23.372;2022-12-20T05:08:53;96814.31;;;-1.49;100.00
12626;BME280;6378;42.684;23.372;2022-12-20T05:11:19;96815.81;;;-1.53;100.00
12626;BME280;6378;42.684;23.372;2022-12-20T05:13:45;96811.63;;;-1.61;100.00
12626;BME280;6378;42.684;23.372;2022-12-20T05:16:10;96789.09;;;-1.75;100.00
12626;BME280;6378;42.684;23.372;2022-12-20T05:18:36;96821.41;;;-1.61;100.00
12626;BME280;6378;42.684;23.372;2022-12-20T05:21:02;96822.06;;;-1.66;100.00
12626;BME280;6378;42.684;23.372;2022-12-20T05:23:46;96821.41;;;-1.61;100.00
12626;BME280;6378;42.684;23.372;2022-12-20T05:26:33;96790.78;;;-1.81;100.00
12626;BME280;6378;42.684;23.372;2022-12-20T05:28:59;96809.66;;;-1.65;100.00
12626;BME280;6378;42.684;23.372;2022-12-20T05:31:25;96814.38;;;-1.67;100.00
12626;BME280;6378;42.684;23.372;2022-12-20T05:33:50;96819.41;;;-1.66;100.00
12626;BME280;6378;42.684;23.372;2022-12-20T05:36:16;96814.81;;;-1.70;100.00
12626;BME280;6378;42.684;23.372;2022-12-20T05:38:41;96813.38;;;-1.66;100.00
12626;BME280;6378;42.684;23.372;2022-12-20T05:41:06;96811.75;;;-1.67;100.00
12626;BME280;6378;42.684;23.372;2022-12-20T05:43:32;96813.31;;;-1.78;100.00
12626;BME280;6378;42.684;23.372;2022-12-20T05:45:58;96818.19;;;-1.63;100.00
12626;BME280;6378;42.684;23.372;2022-12-20T05:48:24;96824.25;;;-1.63;100.00
12626;BME280;6378;42.684;23.372;2022-12-20T05:50:50;96826.44;;;-1.60;100.00
12626;BME280;6378;42.684;23.372;2022-12-20T05:53:16;96826.00;;;-1.57;100.00
12626;BME280;6378;42.684;23.372;2022-12-20T05:55:47;96822.56;;;-1.57;100.00
12626;BME280;6378;42.684;23.372;2022-12-20T05:58:14;96829.34;;;-1.50;100.00
12626;BME280;6378;42.684;23.372;2022-12-20T06:00:41;96828.53;;;-1.50;100.00
12626;BME280;6378;42.684;23.372;2022-12-20T06:03:07;96826.59;;;-1.55;100.00
12626;BME280;6378;42.684;23.372;2022-12-20T06:05:35;96827.31;;;-1.48;100.00
12626;BME280;6378;42.684;23.372;2022-12-20T06:08:01;96824.00;;;-1.32;100.00
12626;BME280;6378;42.684;23.372;2022-12-20T06:10:27;96830.81;;;-1.12;100.00
12626;BME280;6378;42.684;23.372;2022-12-20T06:12:52;96833.28;;;-0.76;100.00
12626;BME280;6378;42.684;23.372;2022-12-20T06:15:18;96826.94;;;-0.63;100.00
12626;BME280;6378;42.684;23.372;2022-12-20T06:17:43;96818.06;;;-0.34;100.00
12626;BME280;6378;42.684;23.372;2022-12-20T06:20:10;96826.56;;;-0.20;100.00
12626;BME280;6378;42.684;23.372;2022-12-20T06:22:36;96829.16;;;0.03;100.00
12626;BME280;6378;42.684;23.372;2022-12-20T06:25:02;96833.44;;;0.32;100.00
12626;BME280;6378;42.684;23.372;2022-12-20T06:27:27;96824.34;;;0.28;100.00
12626;BME280;6378;42.684;23.372;2022-12-20T06:29:52;96829.97;;;0.60;100.00
12626;BME280;6378;42.684;23.372;2022-12-20T06:32:19;96822.59;;;0.79;100.00
12626;BME280;6378;42.684;23.372;2022-12-20T06:34:44;96829.28;;;0.98;100.00
12626;BME280;6378;42.684;23.372;2022-12-20T06:37:10;96816.28;;;1.13;100.00
12626;BME280;6378;42.684;23.372;2022-12-20T06:39:36;96806.03;;;1.55;100.00
12626;BME280;6378;42.684;23.372;2022-12-20T06:42:01;96820.25;;;1.88;100.00
12626;BME280;6378;42.684;23.372;2022-12-20T06:44:26;96808.91;;;2.14;100.00
12626;BME280;6378;42.684;23.372;2022-12-20T06:46:52;96806.28;;;2.19;100.00
12626;BME280;6378;42.684;23.372;2022-12-20T06:49:17;96810.53;;;2.42;100.00
12626;BME280;6378;42.684;23.372;2022-12-20T06:51:43;96805.25;;;2.47;100.00
12626;BME280;6378;42.684;23.372;2022-12-20T06:54:08;96787.56;;;2.57;98.91
12626;BME280;6378;42.684;23.372;2022-12-20T06:56:34;96811.03;;;2.39;97.16
12626;BME280;6378;42.684;23.372;2022-12-20T06:58:59;96805.03;;;2.48;97.28
12626;BME280;6378;42.684;23.372;2022-12-20T07:01:24;96807.47;;;2.28;96.72
12626;BME280;6378;42.684;23.372;2022-12-20T07:03:50;96773.69;;;2.02;97.78
12626;BME280;6378;42.684;23.372;2022-12-20T07:06:15;96789.56;;;2.18;98.13
12626;BME280;6378;42.684;23.372;2022-12-20T07:08:40;96795.53;;;2.57;96.75
12626;BME280;6378;42.684;23.372;2022-12-20T07:11:06;96790.59;;;3.03;91.89
12626;BME280;6378;42.684;23.372;2022-12-20T07:13:32;96782.78;;;3.23;87.17
12626;BME280;6378;42.684;23.372;2022-12-20T07:16:00;96785.28;;;3.03;84.22
12626;BME280;6378;42.684;23.372;2022-12-20T07:18:26;96778.16;;;3.09;84.61
12626;BME280;6378;42.684;23.372;2022-12-20T07:20:51;96787.25;;;3.18;83.15
12626;BME280;6378;42.684;23.372;2022-12-20T07:23:17;96781.19;;;2.90;83.41
12626;BME280;6378;42.684;23.372;2022-12-20T07:25:43;96761.78;;;2.90;82.96
12626;BME280;6378;42.684;23.372;2022-12-20T07:28:08;96699.16;;;2.72;81.10
12626;BME280;6378;42.684;23.372;2022-12-20T07:30:34;96770.59;;;3.27;91.15
12626;BME280;6378;42.684;23.372;2022-12-20T07:32:59;96789.59;;;3.46;79.87
12626;BME280;6378;42.684;23.372;2022-12-20T07:35:24;96779.25;;;3.13;79.00
12626;BME280;6378;42.684;23.372;2022-12-20T07:37:50;96767.34;;;2.83;80.50
12626;BME280;6378;42.684;23.372;2022-12-20T07:40:16;96770.91;;;2.67;81.02
12626;BME280;6378;42.684;23.372;2022-12-20T07:42:41;96791.03;;;2.58;82.33
12626;BME280;6378;42.684;23.372;2022-12-20T07:45:07;96796.72;;;2.72;82.69
12626;BME280;6378;42.684;23.372;2022-12-20T07:47:32;96787.69;;;3.04;82.21
12626;BME280;6378;42.684;23.372;2022-12-20T07:50:00;96790.75;;;2.86;81.26
12626;BME280;6378;42.684;23.372;2022-12-20T07:52:27;96789.41;;;2.57;80.74
12626;BME280;6378;42.684;23.372;2022-12-20T07:54:57;96776.72;;;2.64;81.04
12626;BME280;6378;42.684;23.372;2022-12-20T07:57:29;96774.03;;;2.59;81.60
12626;BME280;6378;42.684;23.372;2022-12-20T07:59:58;96782.44;;;2.51;81.85
12626;BME280;6378;42.684;23.372;2022-12-20T08:02:31;96783.00;;;2.53;81.18
12626;BME280;6378;42.684;23.372;2022-12-20T08:05:00;96776.38;;;2.55;81.99
12626;BME280;6378;42.684;23.372;2022-12-20T08:07:28;96745.47;;;2.49;80.13
12626;BME280;6378;42.684;23.372;2022-12-20T08:09:54;96757.94;;;2.44;80.29
12626;BME280;6378;42.684;23.372;2022-12-20T08:12:20;96760.66;;;2.49;81.91
12626;BME280;6378;42.684;23.372;2022-12-20T08:14:45;96776.19;;;2.62;81.98
12626;BME280;6378;42.684;23.372;2022-12-20T08:17:11;96765.84;;;2.66;81.69
12626;BME280;6378;42.684;23.372;2022-12-20T08:19:37;96767.00;;;2.80;80.13
12626;BME280;6378;42.684;23.372;2022-12-20T08:22:03;96759.41;;;2.93;80.32
12626;BME280;6378;42.684;23.372;2022-12-20T08:24:28;96769.44;;;3.18;81.33
12626;BME280;6378;42.684;23.372;2022-12-20T08:26:54;96767.38;;;2.93;77.92
12626;BME280;6378;42.684;23.372;2022-12-20T08:29:19;96764.03;;;3.08;77.55
12626;BME280;6378;42.684;23.372;2022-12-20T08:31:45;96754.47;;;3.07;75.88
12626;BME280;6378;42.684;23.372;2022-12-20T08:34:10;96741.56;;;2.57;75.97
12626;BME280;6378;42.684;23.372;2022-12-20T08:36:36;96754.66;;;2.10;77.87
12626;BME280;6378;42.684;23.372;2022-12-20T08:39:05;96748.97;;;2.23;80.29
12626;BME280;6378;42.684;23.372;2022-12-20T08:41:32;96746.75;;;2.42;82.15
12626;BME280;6378;42.684;23.372;2022-12-20T08:43:58;96751.50;;;2.40;81.18
12626;BME280;6378;42.684;23.372;2022-12-20T08:46:23;96750.63;;;2.29;81.46
12626;BME280;6378;42.684;23.372;2022-12-20T08:48:48;96749.50;;;2.25;81.60
12626;BME280;6378;42.684;23.372;2022-12-20T08:51:14;96744.81;;;2.10;81.25
12626;BME280;6378;42.684;23.372;2022-12-20T08:53:39;96742.38;;;2.04;82.09
12626;BME280;6378;42.684;23.372;2022-12-20T08:58:32;96733.00;;;2.50;83.93
12626;BME280;6378;42.684;23.372;2022-12-20T09:00:58;96747.03;;;2.45;82.12
12626;BME280;6378;42.684;23.372;2022-12-20T09:03:29;96744.13;;;2.20;81.30
12626;BME280;6378;42.684;23.372;2022-12-20T09:05:56;96731.53;;;2.10;80.47
12626;BME280;6378;42.684;23.372;2022-12-20T09:08:21;96727.53;;;2.08;79.85
12626;BME280;6378;42.684;23.372;2022-12-20T09:10:47;96692.41;;;1.74;80.22
12626;BME280;6378;42.684;23.372;2022-12-20T09:13:12;96722.34;;;2.18;81.51
12626;BME280;6378;42.684;23.372;2022-12-20T09:15:38;96722.53;;;2.38;80.26
12626;BME280;6378;42.684;23.372;2022-12-20T09:18:04;96718.22;;;2.59;77.26
12626;BME280;6378;42.684;23.372;2022-12-20T09:20:29;96707.72;;;2.47;75.13
12626;BME280;6378;42.684;23.372;2022-12-20T09:22:57;96711.91;;;2.70;74.86
12626;BME280;6378;42.684;23.372;2022-12-20T09:25:22;96701.66;;;2.89;73.97
12626;BME280;6378;42.684;23.372;2022-12-20T09:27:48;96689.13;;;2.47;72.17
12626;BME280;6378;42.684;23.372;2022-12-20T09:30:13;96696.16;;;2.58;70.85
12626;BME280;6378;42.684;23.372;2022-12-20T09:32:39;96693.13;;;2.82;69.97
12626;BME280;6378;42.684;23.372;2022-12-20T09:35:04;96683.88;;;2.94;70.39
12626;BME280;6378;42.684;23.372;2022-12-20T09:37:31;96697.84;;;3.12;69.53
12626;BME280;6378;42.684;23.372;2022-12-20T09:39:57;96695.16;;;3.07;68.52
12626;BME280;6378;42.684;23.372;2022-12-20T09:42:27;96687.00;;;2.81;67.63
12626;BME280;6378;42.684;23.372;2022-12-20T09:45:06;96692.66;;;2.95;69.04
12626;BME280;6378;42.684;23.372;2022-12-20T09:47:34;96676.66;;;3.27;67.88
12626;BME280;6378;42.684;23.372;2022-12-20T09:50:01;96682.53;;;3.39;67.71
12626;BME280;6378;42.684;23.372;2022-12-20T09:53:13;96676.69;;;3.37;65.87
12626;BME280;6378;42.684;23.372;2022-12-20T09:55:38;96647.22;;;2.96;64.20
12626;BME280;6378;42.684;23.372;2022-12-20T10:00:51;96656.66;;;3.24;64.48
12626;BME280;6378;42.684;23.372;2022-12-20T10:03:37;96648.97;;;3.33;63.15
12626;BME280;6378;42.684;23.372;2022-12-20T10:06:27;96653.88;;;3.51;61.68
12626;BME280;6378;42.684;23.372;2022-12-20T10:09:02;96634.13;;;3.42;61.65
12626;BME280;6378;42.684;23.372;2022-12-20T10:14:07;96631.47;;;3.42;61.44
12626;BME280;6378;42.684;23.372;2022-12-20T10:16:46;96628.84;;;3.62;60.67
12626;BME280;6378;42.684;23.372;2022-12-20T10:22:20;96609.44;;;3.67;61.21
12626;BME280;6378;42.684;23.372;2022-12-20T10:25:14;96607.06;;;3.65;61.44
12626;BME280;6378;42.684;23.372;2022-12-20T10:27:44;96587.88;;;3.63;61.03
12626;BME280;6378;42.684;23.372;2022-12-20T10:30:31;96582.72;;;3.31;62.57
12626;BME280;6378;42.684;23.372;2022-12-20T10:32:57;96573.44;;;3.39;63.17
12626;BME280;6378;42.684;23.372;2022-12-20T10:35:43;96567.78;;;3.25;62.86
12626;BME280;6378;42.684;23.372;2022-12-20T10:38:11;96566.72;;;3.16;63.08
12626;BME280;6378;42.684;23.372;2022-12-20T10:40:42;96568.53;;;3.11;65.07
12626;BME280;6378;42.684;23.372;2022-12-20T10:43:20;96561.66;;;3.20;66.58
12626;BME280;6378;42.684;23.372;2022-12-20T10:46:06;96546.25;;;3.27;66.48
12626;BME280;6378;42.684;23.372;2022-12-20T10:51:20;96541.19;;;3.25;64.42
12626;BME280;6378;42.684;23.372;2022-12-20T10:53:58;96542.28;;;3.34;63.18
12626;BME280;6378;42.684;23.372;2022-12-20T10:58:54;96520.97;;;3.24;63.38
12626;BME280;6378;42.684;23.372;2022-12-20T11:01:22;96512.16;;;3.19;62.24
12626;BME280;6378;42.684;23.372;2022-12-20T11:06:22;96528.75;;;3.51;61.27
12626;BME280;6378;42.684;23.372;2022-12-20T11:08:48;96520.47;;;3.53;61.83
12626;BME280;6378;42.684;23.372;2022-12-20T11:13:41;96509.56;;;3.49;61.95
12626;BME280;6378;42.684;23.372;2022-12-20T11:24:06;96494.94;;;3.62;59.17
12626;BME280;6378;42.684;23.372;2022-12-20T11:26:54;96495.47;;;3.69;57.58
12626;BME280;6378;42.684;23.372;2022-12-20T11:29:53;96493.38;;;3.66;57.50
12626;BME280;6378;42.684;23.372;2022-12-20T11:32:45;96490.16;;;3.74;57.14
12626;BME280;6378;42.684;23.372;2022-12-20T11:40:38;96474.19;;;3.94;56.39
12626;BME280;6378;42.684;23.372;2022-12-20T11:51:46;96466.13;;;4.40;53.36
12626;BME280;6378;42.684;23.372;2022-12-20T11:54:28;96465.06;;;4.20;52.83
12626;BME280;6378;42.684;23.372;2022-12-20T11:57:04;96471.47;;;4.34;53.19
12626;BME280;6378;42.684;23.372;2022-12-20T11:59:43;96438.41;;;4.20;53.11
12626;BME280;6378;42.684;23.372;2022-12-20T12:02:30;96460.81;;;4.34;53.12
12626;BME280;6378;42.684;23.372;2022-12-20T12:05:22;96458.84;;;4.55;52.83
12626;BME280;6378;42.684;23.372;2022-12-20T12:08:02;96444.44;;;4.61;52.49
12626;BME280;6378;42.684;23.372;2022-12-20T12:10:40;96445.00;;;4.58;51.86
12626;BME280;6378;42.684;23.372;2022-12-20T12:13:17;96442.38;;;4.48;52.53
12626;BME280;6378;42.684;23.372;2022-12-20T12:18:19;96440.44;;;4.64;52.87
12626;BME280;6378;42.684;23.372;2022-12-20T12:28:51;96410.38;;;4.48;51.01
12626;BME280;6378;42.684;23.372;2022-12-20T12:31:24;96412.47;;;4.56;49.89
12626;BME280;6378;42.684;23.372;2022-12-20T12:34:13;96438.91;;;4.48;49.90
12626;BME280;6378;42.684;23.372;2022-12-20T12:43:10;96429.25;;;4.62;49.23
12626;BME280;6378;42.684;23.372;2022-12-20T12:45:47;96435.09;;;4.69;49.50
12626;BME280;6378;42.684;23.372;2022-12-20T12:48:32;96426.00;;;4.70;50.21
12626;BME280;6378;42.684;23.372;2022-12-20T12:51:01;96401.84;;;4.46;50.16
12626;BME280;6378;42.684;23.372;2022-12-20T12:53:35;96438.47;;;4.85;49.75
12626;BME280;6378;42.684;23.372;2022-12-20T13:11:55;96406.13;;;4.96;49.36
12626;BME280;6378;42.684;23.372;2022-12-20T13:16:53;96390.22;;;4.81;48.41
12626;BME280;6378;42.684;23.372;2022-12-20T13:21:54;96400.41;;;4.69;47.84
12626;BME280;6378;42.684;23.372;2022-12-20T13:27:29;96404.97;;;4.63;48.01
12626;BME280;6378;42.684;23.372;2022-12-20T13:38:03;96395.13;;;4.64;48.93
12626;BME280;6378;42.684;23.372;2022-12-20T13:43:26;96379.41;;;4.57;49.92
12626;BME280;6378;42.684;23.372;2022-12-20T13:46:13;96392.72;;;4.62;49.54
12626;BME280;6378;42.684;23.372;2022-12-20T13:51:08;96397.00;;;4.58;47.98
12626;BME280;6378;42.684;23.372;2022-12-20T13:53:34;96394.63;;;4.52;49.17
12626;BME280;6378;42.684;23.372;2022-12-20T13:58:58;96397.59;;;4.40;48.71
12626;BME280;6378;42.684;23.372;2022-12-20T14:01:27;96380.31;;;4.27;48.40
12626;BME280;6378;42.684;23.372;2022-12-20T14:03:53;96297.91;;;3.67;47.87
12626;BME280;6378;42.684;23.372;2022-12-20T14:06:20;96385.44;;;4.14;48.30
12626;BME280;6378;42.684;23.372;2022-12-20T14:08:49;96378.72;;;4.26;48.72
12626;BME280;6378;42.684;23.372;2022-12-20T14:13:53;96373.72;;;4.15;49.50
12626;BME280;6378;42.684;23.372;2022-12-20T14:16:20;96367.28;;;4.21;49.81
12626;BME280;6378;42.684;23.372;2022-12-20T14:18:59;96352.44;;;4.05;49.82
12626;BME280;6378;42.684;23.372;2022-12-20T14:21:25;96377.44;;;4.09;50.18
12626;BME280;6378;42.684;23.372;2022-12-20T14:23:54;96370.53;;;4.08;50.20
12626;BME280;6378;42.684;23.372;2022-12-20T14:26:29;96364.63;;;4.16;50.52
12626;BME280;6378;42.684;23.372;2022-12-20T14:28:56;96371.34;;;3.98;50.46
12626;BME280;6378;42.684;23.372;2022-12-20T14:33:52;96365.25;;;3.77;51.50
12626;BME280;6378;42.684;23.372;2022-12-20T14:36:25;96359.69;;;3.79;51.46
12626;BME280;6378;42.684;23.372;2022-12-20T14:38:51;96361.78;;;3.82;52.03
12626;BME280;6378;42.684;23.372;2022-12-20T14:41:30;96356.47;;;3.82;52.07
12626;BME280;6378;42.684;23.372;2022-12-20T14:44:00;96361.28;;;3.80;52.38
12626;BME280;6378;42.684;23.372;2022-12-20T14:46:28;96357.25;;;3.82;52.52
12626;BME280;6378;42.684;23.372;2022-12-20T14:51:46;96358.53;;;4.69;62.99
12626;BME280;6378;42.684;23.372;2022-12-20T14:54:21;96337.34;;;4.44;56.37
12626;BME280;6378;42.684;23.372;2022-12-20T14:56:50;96337.78;;;4.02;56.27
12626;BME280;6378;42.684;23.372;2022-12-20T14:59:22;96362.56;;;3.87;57.60
12626;BME280;6378;42.684;23.372;2022-12-20T15:01:49;96350.09;;;3.78;58.65
12626;BME280;6378;42.684;23.372;2022-12-20T15:04:30;96342.94;;;3.53;60.29
12626;BME280;6378;42.684;23.372;2022-12-20T15:06:56;96341.38;;;3.37;61.20
12626;BME280;6378;42.684;23.372;2022-12-20T15:09:22;96342.44;;;3.41;61.90
12626;BME280;6378;42.684;23.372;2022-12-20T15:11:48;96339.22;;;3.39;62.27
12626;BME280;6378;42.684;23.372;2022-12-20T15:14:35;96340.84;;;3.30;63.67
12626;BME280;6378;42.684;23.372;2022-12-20T15:17:12;96336.84;;;3.27;63.90
12626;BME280;6378;42.684;23.372;2022-12-20T15:19:41;96344.28;;;3.25;65.68
12626;BME280;6378;42.684;23.372;2022-12-20T15:22:13;96346.69;;;3.22;66.79